LIRP/PSA METAR and TAF weather

Enter ICAO airport designator
Station Type Date Time Source
LIRP METAR 2019/10/23 21:15 UTC NOAA

LIRP 232115Z 10010KT CAVOK 17/14 Q1015 NOSIG


Station Type Date Time Source
LIRP Decoded METAR 2019/10/23 21:15 UTC NOAA

Pisa / S. Giusto, Italy (LIRP) 43-41N 010-23E 6M
Oct 23, 2019 - 05:15 PM EDT / 2019.10.23 2115 UTC
Wind: from the E (100 degrees) at 12 MPH (10 KT):0
Visibility: greater than 7 mile(s):0
Temperature: 62 F (17 C)
Dew Point: 57 F (14 C)
Relative Humidity: 82%
Pressure (altimeter): 29.97 in. Hg (1015 hPa)
ob: LIRP 232115Z 10010KT CAVOK 17/14 Q1015 NOSIG
cycle: 21

Station Type Date Time Source
LIRP TAF 2019/10/23 18:27 UTC NOAA

TAF TAF LIRP 231700Z 2318/2418 09005KT 9999 SCT050
BECMG 2402/2405 9999 SCT025 BKN060
TEMPO 2406/2418 5000 RA
TEMPO 2406/2412 3000 TSRA FEW010CB BKN015

Example: see airport list